OAKB/KBL METAR and TAF weather

Enter ICAO airport designator
Station Type Date Time Source
OAKB METAR 2019/12/06 23:50 UTC NOAA

OAKB 062350Z 28002KT 6000 FU NSC 00/M05 Q1028 NOSIG RMK A3037 WHT WHT


Station Type Date Time Source
OAKB Decoded METAR 2019/12/06 23:50 UTC NOAA

Kabul Airport, Afghanistan (OAKB) 34-38N 069-12E
Dec 06, 2019 - 06:50 PM EST / 2019.12.06 2350 UTC
Wind: from the W (280 degrees) at 2 MPH (2 KT):0
Visibility: 3 mile(s):0
Weather: smoke
Temperature: 32 F (0 C)
Dew Point: 23 F (-5 C)
Relative Humidity: 69%
Pressure (altimeter): 30.36 in. Hg (1028 hPa)
ob: OAKB 062350Z 28002KT 6000 FU NSC 00/M05 Q1028 NOSIG RMK A3037 WHT WHT
cycle: 0

Station Type Date Time Source
OAKB TAF 2019/12/06 18:10 UTC NOAA

TAF COR OAKB 061710Z 0618/0718 VRB02KT 3000 FU BR NSC PROB40 0618/0623 1000 FU BR
BECMG 0700/0701 5000 FU BR
TEMPO 0702/0705 3000 HZ
BECMG 0707/0709 8000 NSW
BECMG 0713/0715 3000 FU BR
TEMPO 0716/0718 1200 FU BR

Example: see airport list